createdAt,value
2018-03-14T00:00:47.928Z,97758.98
2018-03-14T00:03:16.551Z,97760.31
2018-03-14T00:05:50.003Z,97760.89
2018-03-14T00:08:18.545Z,97759.20
2018-03-14T00:10:47.105Z,97760.86
2018-03-14T00:13:15.672Z,97757.63
2018-03-14T00:15:44.225Z,97768.53
2018-03-14T00:18:14.003Z,97764.75
2018-03-14T00:20:42.595Z,97760.31
2018-03-14T00:23:13.764Z,97765.39
2018-03-14T00:25:42.311Z,97762.61
2018-03-14T00:28:10.957Z,97768.26
2018-03-14T00:30:39.513Z,97768.53
2018-03-14T00:33:10.563Z,97765.09
2018-03-14T00:35:39.230Z,97771.12
2018-03-14T00:38:07.800Z,97765.84
2018-03-14T00:40:38.344Z,97767.11
2018-03-14T00:43:06.888Z,97770.41
2018-03-14T00:45:35.571Z,97767.69
2018-03-14T00:48:10.549Z,97774.87
2018-03-14T00:50:39.058Z,97770.47
2018-03-14T00:53:07.933Z,97770.20
2018-03-14T00:58:08.630Z,97765.15
2018-03-14T01:00:37.230Z,97769.44
2018-03-14T01:03:05.820Z,97768.66
2018-03-14T01:05:34.814Z,97767.11
2018-03-14T01:08:03.489Z,97773.48
2018-03-14T01:10:32.019Z,97773.94
2018-03-14T01:13:00.565Z,97779.91
2018-03-14T01:15:29.454Z,97777.68
2018-03-14T01:17:58.217Z,97771.48
2018-03-14T01:20:26.733Z,97779.73
2018-03-14T01:22:55.232Z,97773.14
2018-03-14T01:25:25.280Z,97775.53
2018-03-14T01:27:53.874Z,97771.76
2018-03-14T01:30:22.479Z,97777.53
2018-03-14T01:32:50.997Z,97777.83
2018-03-14T01:35:19.590Z,97771.01
2018-03-14T01:37:48.131Z,97770.41
2018-03-14T01:40:21.540Z,97770.55
2018-03-14T01:42:50.107Z,97773.42
2018-03-14T01:45:18.680Z,97773.03
2018-03-14T01:47:47.192Z,97771.28
2018-03-14T01:50:16.175Z,97769.28
2018-03-14T01:52:44.751Z,97768.26
2018-03-14T01:55:13.407Z,97781.52
2018-03-14T01:57:41.932Z,97782.55
2018-03-14T02:00:11.803Z,97776.66
2018-03-14T02:02:40.386Z,97772.58
2018-03-14T02:05:09.789Z,97772.22
2018-03-14T02:07:38.373Z,97771.25
2018-03-14T02:10:10.985Z,97773.61
2018-03-14T02:12:39.601Z,97777.35
2018-03-14T02:15:09.040Z,97781.06
2018-03-14T02:17:37.892Z,97781.42
2018-03-14T02:20:07.581Z,97784.48
2018-03-14T02:22:36.400Z,97785.59
2018-03-14T02:25:05.037Z,97791.06
2018-03-14T02:27:33.628Z,97791.39
2018-03-14T02:30:08.576Z,97787.47
2018-03-14T02:32:37.116Z,97792.39
2018-03-14T02:35:06.503Z,97788.61
2018-03-14T02:37:35.091Z,97789.97
2018-03-14T02:40:04.912Z,97790.59
2018-03-14T02:42:33.447Z,97788.09
2018-03-14T02:45:01.979Z,97790.48
2018-03-14T02:47:30.841Z,97797.73
2018-03-14T02:49:59.349Z,97798.43
2018-03-14T02:52:27.864Z,97797.50
2018-03-14T02:54:56.341Z,97795.27
2018-03-14T02:57:25.852Z,97796.65
2018-03-14T03:00:08.397Z,97796.83
2018-03-14T03:02:36.898Z,97797.64
2018-03-14T03:05:05.577Z,97799.70
2018-03-14T03:07:34.215Z,97793.69
2018-03-14T03:10:03.071Z,97806.77
2018-03-14T03:12:31.617Z,97806.89
2018-03-14T03:15:00.206Z,97798.16
2018-03-14T03:17:28.731Z,97809.52
2018-03-14T03:19:57.625Z,97802.72
2018-03-14T03:22:26.151Z,97803.92
2018-03-14T03:24:54.644Z,97804.63
2018-03-14T03:27:23.167Z,97800.63
2018-03-14T03:29:52.164Z,97799.48
2018-03-14T03:32:20.829Z,97806.92
2018-03-14T03:34:49.500Z,97802.45
2018-03-14T03:37:18.359Z,97806.50
2018-03-14T03:40:08.449Z,97810.70
2018-03-14T03:42:37.032Z,97802.69
2018-03-14T03:45:07.055Z,97807.61
2018-03-14T03:47:36.960Z,97808.37
2018-03-14T03:50:06.581Z,97809.06
2018-03-14T03:52:35.296Z,97811.30
2018-03-14T03:55:03.927Z,97809.64
2018-03-14T03:57:32.485Z,97812.01
2018-03-14T04:00:02.616Z,97817.58
2018-03-14T04:02:31.117Z,97820.38
2018-03-14T04:04:59.654Z,97818.57
2018-03-14T04:07:28.215Z,97820.98
2018-03-14T04:09:56.766Z,97819.89
2018-03-14T04:12:25.435Z,97825.02
2018-03-14T04:14:55.367Z,97824.14
2018-03-14T04:17:23.963Z,97817.38
2018-03-14T04:19:52.639Z,97823.48
2018-03-14T04:22:21.168Z,97827.43
2018-03-14T04:27:26.211Z,97831.03
2018-03-14T04:29:54.772Z,97826.69
2018-03-14T04:32:30.848Z,97825.72
2018-03-14T04:34:59.427Z,97821.50
2018-03-14T04:37:27.962Z,97825.21
2018-03-14T04:39:56.493Z,97821.81
2018-03-14T04:42:25.492Z,97820.30
2018-03-14T04:44:54.172Z,97817.78
2018-03-14T04:47:22.758Z,97824.23
2018-03-14T04:49:51.452Z,97817.20
2018-03-14T04:52:22.523Z,97824.00
2018-03-14T04:58:13.270Z,97825.36
2018-03-14T05:00:45.922Z,97824.40
2018-03-14T05:03:14.787Z,97829.27
2018-03-14T05:05:43.448Z,97830.70
2018-03-14T05:08:12.041Z,97829.31
2018-03-14T05:10:41.869Z,97829.85
2018-03-14T05:13:10.372Z,97831.59
2018-03-14T05:15:39.008Z,97830.16
2018-03-14T05:18:07.721Z,97831.50
2018-03-14T05:20:36.424Z,97833.37
2018-03-14T05:23:05.023Z,97820.46
2018-03-14T05:25:35.941Z,97828.34
2018-03-14T05:29:30.464Z,97834.07
2018-03-14T05:31:59.310Z,97829.93
2018-03-14T05:34:31.871Z,97836.89
2018-03-14T05:37:00.583Z,97829.75
2018-03-14T05:39:29.279Z,97831.05
2018-03-14T05:41:57.851Z,97831.66
2018-03-14T05:44:26.697Z,97829.56
2018-03-14T05:46:55.312Z,97825.72
2018-03-14T05:49:24.349Z,97832.80
2018-03-14T05:51:52.936Z,97826.49
2018-03-14T05:54:22.875Z,97827.13
2018-03-14T05:56:52.114Z,97831.92
2018-03-14T05:59:20.798Z,97830.48
2018-03-14T06:01:49.590Z,97829.88
2018-03-14T06:04:22.796Z,97831.73
2018-03-14T06:06:51.399Z,97835.25
2018-03-14T06:09:20.004Z,97832.83
2018-03-14T06:11:48.598Z,97831.55
2018-03-14T06:14:19.078Z,97824.59
2018-03-14T06:16:48.003Z,97826.66
2018-03-14T06:19:16.865Z,97829.05
2018-03-14T06:21:46.940Z,97831.87
2018-03-14T06:24:16.806Z,97828.77
2018-03-14T06:26:45.419Z,97830.86
2018-03-14T06:29:13.983Z,97837.34
2018-03-14T06:31:42.514Z,97832.42
2018-03-14T06:34:11.054Z,97832.47
2018-03-14T06:36:39.601Z,97839.88
2018-03-14T06:39:08.178Z,97834.58
2018-03-14T06:41:38.259Z,97844.65
2018-03-14T06:44:07.789Z,97844.11
2018-03-14T06:46:36.928Z,97850.13
2018-03-14T06:49:07.096Z,97854.30
2018-03-14T06:51:41.317Z,97851.16
2018-03-14T06:54:10.997Z,97858.05
2018-03-14T06:56:40.907Z,97858.61
2018-03-14T07:01:24.950Z,97859.97
2018-03-14T07:04:04.674Z,97863.31
2018-03-14T07:06:33.221Z,97859.13
2018-03-14T07:09:02.032Z,97860.91
2018-03-14T07:11:30.480Z,97854.86
2018-03-14T07:13:58.983Z,97854.38
2018-03-14T07:16:27.904Z,97853.80
2018-03-14T07:18:56.569Z,97858.85
2018-03-14T07:21:25.180Z,97861.05
2018-03-14T07:23:54.003Z,97862.20
2018-03-14T07:26:23.023Z,97866.25
2018-03-14T07:28:59.297Z,97873.02
2018-03-14T07:31:28.775Z,97868.53
2018-03-14T07:33:59.676Z,97869.95
2018-03-14T07:36:29.377Z,97864.53
2018-03-14T07:38:58.500Z,97868.84
2018-03-14T07:41:27.676Z,97874.20
2018-03-14T07:43:56.526Z,97874.08
2018-03-14T07:46:26.502Z,97874.13
2018-03-14T07:49:00.312Z,97874.19
2018-03-14T07:51:30.163Z,97870.87
2018-03-14T07:53:58.721Z,97874.11
2018-03-14T07:56:27.339Z,97871.12
2018-03-14T07:58:56.020Z,97881.51
2018-03-14T08:01:24.573Z,97883.37
2018-03-14T08:03:53.240Z,97881.06
2018-03-14T08:06:22.075Z,97882.64
2018-03-14T08:08:50.619Z,97876.27
2018-03-14T08:11:19.164Z,97881.52
2018-03-14T08:13:48.358Z,97875.79
2018-03-14T08:16:17.137Z,97877.25
2018-03-14T08:18:46.320Z,97877.64
2018-03-14T08:21:14.900Z,97878.33
2018-03-14T08:23:43.498Z,97877.52
2018-03-14T08:26:12.588Z,97880.74
2018-03-14T08:28:41.390Z,97874.22
2018-03-14T08:31:10.048Z,97875.55
2018-03-14T08:33:38.631Z,97871.66
2018-03-14T08:38:42.395Z,97867.27
2018-03-14T08:41:10.990Z,97869.28
2018-03-14T08:43:39.596Z,97863.58
2018-03-14T08:46:08.122Z,97867.81
2018-03-14T08:48:36.759Z,97870.97
2018-03-14T08:51:06.564Z,97870.27
2018-03-14T08:53:37.291Z,97874.52
2018-03-14T08:56:05.986Z,97875.37
2018-03-14T08:58:34.731Z,97861.00
2018-03-14T09:01:03.338Z,97864.92
2018-03-14T09:03:31.969Z,97864.41
2018-03-14T09:06:21.101Z,97859.64
2018-03-14T09:09:07.088Z,97861.48
2018-03-14T09:25:12.437Z,97869.22
2018-03-14T09:27:41.141Z,97859.08
2018-03-14T09:30:10.407Z,97861.13
2018-03-14T09:32:39.147Z,97861.09
2018-03-14T09:35:08.336Z,97864.03
2018-03-14T09:37:37.482Z,97854.24
2018-03-14T09:40:06.350Z,97857.56
2018-03-14T09:42:34.938Z,97853.86
2018-03-14T09:45:03.613Z,97854.23
2018-03-14T09:47:32.118Z,97848.92
2018-03-14T09:50:04.972Z,97856.20
2018-03-14T09:52:33.485Z,97848.17
2018-03-14T09:55:02.103Z,97847.20
2018-03-14T09:57:30.660Z,97847.81
2018-03-14T09:59:59.325Z,97852.11
2018-03-14T10:02:27.950Z,97848.89
2018-03-14T10:04:56.502Z,97851.86
2018-03-14T10:07:25.364Z,97848.64
2018-03-14T10:09:53.917Z,97847.04
2018-03-14T10:12:22.591Z,97841.77
2018-03-14T10:14:51.144Z,97844.56
2018-03-14T10:17:20.070Z,97839.43
2018-03-14T10:19:48.625Z,97836.45
2018-03-14T10:22:17.313Z,97830.26
2018-03-14T10:24:47.177Z,97829.42
2018-03-14T10:27:15.655Z,97828.02
2018-03-14T10:29:44.296Z,97824.19
2018-03-14T10:32:12.939Z,97821.39
2018-03-14T10:34:41.523Z,97821.97
2018-03-14T10:37:10.208Z,97819.25
2018-03-14T10:39:38.758Z,97821.42
2018-03-14T10:42:07.507Z,97814.55
2018-03-14T10:44:36.037Z,97814.50
2018-03-14T10:47:04.645Z,97814.91
2018-03-14T10:49:52.231Z,97812.63
2018-03-14T10:52:20.850Z,97806.95
2018-03-14T10:54:49.615Z,97806.53
2018-03-14T10:57:25.117Z,97804.52
2018-03-14T10:59:53.644Z,97805.02
2018-03-14T11:02:23.314Z,97797.29
2018-03-14T11:04:52.438Z,97794.91
2018-03-14T11:07:21.356Z,97794.44
2018-03-14T11:09:50.070Z,97793.73
2018-03-14T11:12:18.700Z,97791.61
2018-03-14T11:14:47.312Z,97781.38
2018-03-14T11:17:15.859Z,97786.23
2018-03-14T11:19:44.449Z,97776.12
2018-03-14T11:22:14.026Z,97779.18
2018-03-14T11:24:42.898Z,97767.13
2018-03-14T11:27:11.569Z,97769.09
2018-03-14T11:29:40.254Z,97762.08
2018-03-14T11:32:10.031Z,97753.96
2018-03-14T11:34:44.452Z,97757.36
2018-03-14T11:37:13.235Z,97759.50
2018-03-14T11:39:41.916Z,97754.98
2018-03-14T11:42:10.549Z,97756.75
2018-03-14T11:44:39.177Z,97752.54
2018-03-14T11:47:08.076Z,97742.54
2018-03-14T11:49:37.011Z,97736.49
2018-03-14T11:52:05.710Z,97734.14
2018-03-14T11:54:34.383Z,97728.94
2018-03-14T11:57:03.071Z,97727.03
2018-03-14T11:59:32.606Z,97726.81
2018-03-14T12:02:01.267Z,97722.92
2018-03-14T12:04:29.998Z,97715.64
2018-03-14T12:06:58.968Z,97709.02
2018-03-14T12:09:27.835Z,97709.89
2018-03-14T12:11:56.602Z,97705.28
2018-03-14T12:14:25.472Z,97708.54
2018-03-14T12:16:54.459Z,97713.53
2018-03-14T12:19:23.353Z,97701.33
2018-03-14T12:21:52.244Z,97691.58
2018-03-14T12:24:20.868Z,97687.98
2018-03-14T12:26:49.587Z,97682.58
2018-03-14T12:29:18.298Z,97676.94
2018-03-14T12:31:46.857Z,97674.03
2018-03-14T12:34:16.722Z,97665.42
2018-03-14T12:36:45.178Z,97658.11
2018-03-14T12:39:13.852Z,97644.67
2018-03-14T12:41:42.625Z,97645.36
2018-03-14T12:44:11.762Z,97639.34
2018-03-14T12:46:40.222Z,97633.29
2018-03-14T12:49:08.708Z,97631.00
2018-03-14T12:51:45.204Z,97624.58
2018-03-14T12:54:13.844Z,97628.19
2018-03-14T12:56:46.616Z,97620.27
2018-03-14T12:59:15.070Z,97624.63
2018-03-14T13:01:43.991Z,97610.31
2018-03-14T13:04:12.613Z,97608.59
2018-03-14T13:06:41.312Z,97605.00
2018-03-14T13:09:10.072Z,97598.85
2018-03-14T13:11:38.717Z,97603.04
2018-03-14T13:14:07.266Z,97596.24
2018-03-14T13:16:38.419Z,97597.67
2018-03-14T13:19:06.949Z,97597.20
2018-03-14T13:21:35.578Z,97591.04
2018-03-14T13:24:04.133Z,97597.20
2018-03-14T13:26:32.663Z,97590.81
2018-03-14T13:29:01.348Z,97596.20
2018-03-14T13:31:29.959Z,97593.02
2018-03-14T13:34:01.129Z,97593.02
2018-03-14T13:36:29.685Z,97590.77
2018-03-14T13:38:58.200Z,97580.33
2018-03-14T13:41:27.172Z,97575.69
2018-03-14T13:43:55.656Z,97571.25
2018-03-14T13:46:24.195Z,97570.30
2018-03-14T13:48:53.822Z,97567.41
2018-03-14T13:51:22.331Z,97572.88
2018-03-14T13:53:50.799Z,97557.45
2018-03-14T13:56:19.403Z,97563.34
2018-03-14T13:58:47.967Z,97555.15
2018-03-14T14:01:16.876Z,97550.64
2018-03-14T14:06:19.314Z,97544.08
2018-03-14T14:08:49.338Z,97541.49
2018-03-14T14:11:17.922Z,97530.54
2018-03-14T14:13:46.506Z,97531.83
2018-03-14T14:16:15.117Z,97528.67
2018-03-14T14:18:44.118Z,97528.58
2018-03-14T14:21:12.574Z,97517.47
2018-03-14T14:23:41.111Z,97512.03
2018-03-14T14:26:09.646Z,97507.65
2018-03-14T14:28:38.885Z,97498.89
2018-03-14T14:31:07.507Z,97496.59
2018-03-14T14:33:36.323Z,97491.52
2018-03-14T14:36:05.822Z,97488.45
2018-03-14T14:38:35.143Z,97481.53
2018-03-14T14:41:03.900Z,97481.14
2018-03-14T14:43:32.387Z,97480.17
2018-03-14T14:46:00.796Z,97477.13
2018-03-14T14:48:29.556Z,97466.27
2018-03-14T14:50:58.046Z,97461.47
2018-03-14T14:53:26.602Z,97460.88
2018-03-14T14:55:55.184Z,97451.69
2018-03-14T14:58:27.691Z,97454.47
2018-03-14T15:00:56.325Z,97450.66
2018-03-14T15:03:24.845Z,97449.36
2018-03-14T15:05:53.366Z,97441.45
2018-03-14T15:08:21.975Z,97441.32
2018-03-14T15:10:50.914Z,97430.59
2018-03-14T15:13:21.768Z,97426.30
2018-03-14T15:15:50.318Z,97428.96
2018-03-14T15:18:18.905Z,97423.53
2018-03-14T15:20:47.427Z,97418.42
2018-03-14T15:23:15.947Z,97413.30
2018-03-14T15:25:44.506Z,97423.63
2018-03-14T15:28:13.053Z,97410.83
2018-03-14T15:30:41.600Z,97416.27
2018-03-14T15:33:10.670Z,97409.37
2018-03-14T15:35:39.381Z,97407.69
2018-03-14T15:38:09.230Z,97411.52
2018-03-14T15:40:37.779Z,97392.39
2018-03-14T15:43:06.460Z,97389.17
2018-03-14T15:45:34.976Z,97378.66
2018-03-14T15:48:04.613Z,97376.53
2018-03-14T15:50:33.175Z,97368.59
2018-03-14T15:53:01.859Z,97366.63
2018-03-14T15:55:31.056Z,97372.55
2018-03-14T15:58:02.139Z,97365.14
2018-03-14T16:00:30.578Z,97364.82
2018-03-14T16:02:59.231Z,97366.52
2018-03-14T16:05:27.757Z,97365.31
2018-03-14T16:07:56.295Z,97371.28
2018-03-14T16:10:24.828Z,97367.53
2018-03-14T16:12:53.817Z,97371.77
2018-03-14T16:15:22.274Z,97359.97
2018-03-14T16:17:51.336Z,97354.93
2018-03-14T16:20:19.950Z,97353.78
2018-03-14T16:25:10.514Z,97354.89
2018-03-14T16:27:39.074Z,97352.05
2018-03-14T16:30:08.539Z,97345.44
2018-03-14T16:32:37.308Z,97345.06
2018-03-14T16:35:05.821Z,97351.42
2018-03-14T16:37:34.753Z,97352.33
2018-03-14T16:40:04.241Z,97351.09
2018-03-14T16:42:40.209Z,97357.00
2018-03-14T16:45:10.236Z,97355.17
2018-03-14T16:47:38.941Z,97354.20
2018-03-14T16:50:12.080Z,97354.14
2018-03-14T16:52:40.780Z,97349.12
2018-03-14T16:55:10.080Z,97349.45
2018-03-14T16:57:50.284Z,97344.38
2018-03-14T17:00:18.867Z,97345.51
2018-03-14T17:02:47.441Z,97335.16
2018-03-14T17:05:15.963Z,97342.24
2018-03-14T17:07:45.228Z,97338.25
2018-03-14T17:10:15.433Z,97337.19
2018-03-14T17:12:44.008Z,97338.84
2018-03-14T17:15:12.598Z,97335.59
2018-03-14T17:17:42.526Z,97333.41
2018-03-14T17:20:11.174Z,97327.06
2018-03-14T17:22:39.629Z,97330.57
2018-03-14T17:25:09.874Z,97331.96
2018-03-14T17:27:47.527Z,97336.31
2018-03-14T17:30:16.153Z,97336.98
2018-03-14T17:32:44.618Z,97326.97
2018-03-14T17:35:13.351Z,97326.16
2018-03-14T17:37:41.832Z,97330.19
2018-03-14T17:40:10.428Z,97328.75
2018-03-14T17:42:39.077Z,97328.86
2018-03-14T17:45:08.728Z,97335.92
2018-03-14T17:47:38.118Z,97335.38
2018-03-14T17:50:07.325Z,97326.31
2018-03-14T17:52:35.844Z,97328.81
2018-03-14T17:55:04.353Z,97323.88
2018-03-14T17:57:33.095Z,97320.59
2018-03-14T18:00:03.271Z,97316.30
2018-03-14T18:02:35.212Z,97317.91
2018-03-14T18:05:03.808Z,97317.50
2018-03-14T18:07:36.871Z,97319.79
2018-03-14T18:10:05.534Z,97321.99
2018-03-14T18:14:58.133Z,97310.03
2018-03-14T18:17:26.755Z,97313.32
2018-03-14T18:19:55.363Z,97301.45
2018-03-14T18:22:25.240Z,97301.00
2018-03-14T18:24:54.579Z,97306.55
2018-03-14T18:27:23.854Z,97301.35
2018-03-14T18:29:52.824Z,97304.87
2018-03-14T18:32:21.626Z,97295.84
2018-03-14T18:34:50.235Z,97296.48
2018-03-14T18:37:19.331Z,97291.27
2018-03-14T18:39:48.204Z,97295.25
2018-03-14T18:42:17.251Z,97295.72
2018-03-14T18:44:46.819Z,97291.60
2018-03-14T18:47:23.071Z,97293.38
2018-03-14T18:49:51.920Z,97294.89
2018-03-14T18:52:20.950Z,97287.31
2018-03-14T18:54:49.908Z,97285.54
2018-03-14T18:59:53.826Z,97277.36
2018-03-14T19:02:22.903Z,97277.95
2018-03-14T19:04:52.742Z,97276.59
2018-03-14T19:07:21.594Z,97271.38
2018-03-14T19:09:52.971Z,97271.05
2018-03-14T19:12:22.360Z,97270.00
2018-03-14T19:14:55.557Z,97262.44
2018-03-14T19:17:28.340Z,97263.11
2018-03-14T19:19:58.220Z,97258.20
2018-03-14T19:22:27.119Z,97259.35
2018-03-14T19:24:56.287Z,97255.67
2018-03-14T19:27:28.368Z,97248.05
2018-03-14T19:29:57.349Z,97257.56
2018-03-14T19:32:28.421Z,97253.36
2018-03-14T19:34:57.100Z,97247.49
2018-03-14T19:37:25.749Z,97241.73
2018-03-14T19:39:56.115Z,97245.66
2018-03-14T19:42:24.806Z,97245.88
2018-03-14T19:44:54.012Z,97237.98
2018-03-14T19:47:22.601Z,97234.11
2018-03-14T19:49:51.207Z,97235.06
2018-03-14T19:52:19.839Z,97235.53
2018-03-14T19:54:48.416Z,97232.11
2018-03-14T19:57:17.122Z,97235.19
2018-03-14T19:59:45.947Z,97228.17
2018-03-14T20:02:14.976Z,97224.82
2018-03-14T20:04:43.534Z,97232.85
2018-03-14T20:07:13.632Z,97224.50
2018-03-14T20:09:42.177Z,97234.84
2018-03-14T20:12:10.897Z,97232.52
2018-03-14T20:14:39.745Z,97223.63
2018-03-14T20:17:08.280Z,97219.36
2018-03-14T20:19:36.879Z,97221.26
2018-03-14T20:22:05.518Z,97216.29
2018-03-14T20:24:35.619Z,97214.61
2018-03-14T20:27:04.215Z,97220.39
2018-03-14T20:29:33.805Z,97215.70
2018-03-14T20:32:02.598Z,97208.61
2018-03-14T20:34:31.414Z,97209.12
2018-03-14T20:37:00.029Z,97205.55
2018-03-14T20:39:28.921Z,97200.70
2018-03-14T20:41:57.623Z,97194.05
2018-03-14T20:44:26.381Z,97197.75
2018-03-14T20:46:55.586Z,97198.27
2018-03-14T20:49:24.093Z,97194.03
2018-03-14T20:51:52.642Z,97191.41
2018-03-14T20:54:21.224Z,97185.52
2018-03-14T20:56:50.012Z,97189.59
2018-03-14T20:59:18.911Z,97184.57
2018-03-14T21:01:47.596Z,97185.38
2018-03-14T21:04:16.229Z,97192.44
2018-03-14T21:06:45.154Z,97184.86
2018-03-14T21:09:13.642Z,97185.69
2018-03-14T21:11:42.120Z,97174.77
2018-03-14T21:14:10.631Z,97169.30
2018-03-14T21:16:40.132Z,97160.78
2018-03-14T21:19:08.695Z,97161.94
2018-03-14T21:21:38.351Z,97157.57
2018-03-14T21:24:06.812Z,97158.52
2018-03-14T21:26:35.318Z,97150.81
2018-03-14T21:29:03.902Z,97162.85
2018-03-14T21:31:32.433Z,97157.83
2018-03-14T21:34:00.915Z,97153.95
2018-03-14T21:36:34.554Z,97152.19
2018-03-14T21:39:03.227Z,97147.66
2018-03-14T21:41:31.895Z,97140.61
2018-03-14T21:44:01.471Z,97133.77
2018-03-14T21:46:29.970Z,97134.63
2018-03-14T21:48:58.695Z,97131.51
2018-03-14T21:51:27.178Z,97120.36
2018-03-14T21:53:56.202Z,97119.15
2018-03-14T21:56:43.369Z,97120.31
2018-03-14T21:59:12.168Z,97115.42
2018-03-14T22:01:41.369Z,97116.52
2018-03-14T22:04:09.992Z,97115.69
2018-03-14T22:06:38.720Z,97099.25
2018-03-14T22:09:07.336Z,97091.97
2018-03-14T22:11:37.343Z,97101.84
2018-03-14T22:14:06.129Z,97106.39
2018-03-14T22:16:34.617Z,97100.66
2018-03-14T22:19:03.195Z,97092.06
2018-03-14T22:21:31.891Z,97087.66
2018-03-14T22:24:00.554Z,97079.16
2018-03-14T22:29:03.407Z,97086.23
2018-03-14T22:31:32.784Z,97079.95
2018-03-14T22:34:04.125Z,97080.23
2018-03-14T22:36:35.112Z,97069.22
2018-03-14T22:39:04.170Z,97060.94
2018-03-14T22:41:32.694Z,97057.05
2018-03-14T22:44:01.324Z,97051.48
2018-03-14T22:46:31.221Z,97039.84
2018-03-14T22:48:59.926Z,97038.64
2018-03-14T22:51:28.591Z,97035.63
2018-03-14T22:53:57.380Z,97030.13
2018-03-14T22:56:28.366Z,97031.45
2018-03-14T22:58:57.304Z,97031.67
2018-03-14T23:01:26.563Z,97026.17
2018-03-14T23:03:56.509Z,97020.78
2018-03-14T23:06:26.597Z,97021.48
2018-03-14T23:08:55.453Z,97017.72
2018-03-14T23:11:24.090Z,97011.72
2018-03-14T23:13:53.934Z,97008.35
2018-03-14T23:16:24.680Z,96998.34
2018-03-14T23:18:54.278Z,96996.18
2018-03-14T23:21:23.426Z,96992.59
2018-03-14T23:23:52.452Z,96985.40
2018-03-14T23:26:29.970Z,96980.11
2018-03-14T23:28:58.639Z,96979.81
2018-03-14T23:31:27.940Z,96971.42
2018-03-14T23:33:57.134Z,96966.95
2018-03-14T23:36:26.154Z,96970.92
2018-03-14T23:38:54.890Z,96971.64
2018-03-14T23:41:24.111Z,96973.78
2018-03-14T23:43:53.022Z,96966.53
2018-03-14T23:46:21.789Z,96963.28
2018-03-14T23:48:50.692Z,96949.26
2018-03-14T23:51:19.392Z,96948.25
2018-03-14T23:53:48.355Z,96948.93
2018-03-14T23:56:17.309Z,96943.66
2018-03-14T23:58:46.002Z,96937.82
